sensor_id;sensor_type;location;lat;lon;timestamp;temperature;humidity
35491;DHT22;21605;52.068;20.806;2024-03-02T00:02:00;7.60;99.90
35491;DHT22;21605;52.068;20.806;2024-03-02T00:04:26;7.70;99.90
35491;DHT22;21605;52.068;20.806;2024-03-02T00:06:54;7.60;99.90
35491;DHT22;21605;52.068;20.806;2024-03-02T00:09:20;7.60;99.90
35491;DHT22;21605;52.068;20.806;2024-03-02T00:11:46;7.50;99.90
35491;DHT22;21605;52.068;20.806;2024-03-02T00:14:12;7.50;99.90
35491;DHT22;21605;52.068;20.806;2024-03-02T00:16:37;7.60;99.90
35491;DHT22;21605;52.068;20.806;2024-03-02T00:19:05;7.60;99.90
35491;DHT22;21605;52.068;20.806;2024-03-02T00:21:31;7.60;99.90
35491;DHT22;21605;52.068;20.806;2024-03-02T00:23:57;7.50;99.90
35491;DHT22;21605;52.068;20.806;2024-03-02T00:26:23;7.60;99.90
35491;DHT22;21605;52.068;20.806;2024-03-02T00:28:49;7.60;99.90
35491;DHT22;21605;52.068;20.806;2024-03-02T00:31:16;7.50;99.90
35491;DHT22;21605;52.068;20.806;2024-03-02T00:33:49;7.60;99.90
35491;DHT22;21605;52.068;20.806;2024-03-02T00:36:16;7.50;99.90
35491;DHT22;21605;52.068;20.806;2024-03-02T00:38:50;7.50;99.90
35491;DHT22;21605;52.068;20.806;2024-03-02T00:41:31;7.40;99.90
35491;DHT22;21605;52.068;20.806;2024-03-02T00:44:11;7.40;99.90
35491;DHT22;21605;52.068;20.806;2024-03-02T00:46:46;7.40;99.90
35491;DHT22;21605;52.068;20.806;2024-03-02T00:49:21;7.30;99.90
35491;DHT22;21605;52.068;20.806;2024-03-02T00:51:48;7.30;99.90
35491;DHT22;21605;52.068;20.806;2024-03-02T00:54:15;7.40;99.90
35491;DHT22;21605;52.068;20.806;2024-03-02T00:56:41;7.30;99.90
35491;DHT22;21605;52.068;20.806;2024-03-02T00:59:09;7.30;99.90
35491;DHT22;21605;52.068;20.806;2024-03-02T01:01:35;7.20;99.90
35491;DHT22;21605;52.068;20.806;2024-03-02T01:04:01;7.20;99.90
35491;DHT22;21605;52.068;20.806;2024-03-02T01:06:26;7.30;99.90
35491;DHT22;21605;52.068;20.806;2024-03-02T01:08:52;7.20;99.90
35491;DHT22;21605;52.068;20.806;2024-03-02T01:11:18;7.20;99.90
35491;DHT22;21605;52.068;20.806;2024-03-02T01:13:44;7.20;99.90
35491;DHT22;21605;52.068;20.806;2024-03-02T01:16:10;7.10;99.90
35491;DHT22;21605;52.068;20.806;2024-03-02T01:18:41;7.10;99.90
35491;DHT22;21605;52.068;20.806;2024-03-02T01:21:07;7.20;99.90
35491;DHT22;21605;52.068;20.806;2024-03-02T01:23:33;7.10;99.90
35491;DHT22;21605;52.068;20.806;2024-03-02T01:25:59;7.20;99.90
35491;DHT22;21605;52.068;20.806;2024-03-02T01:28:25;7.10;99.90
35491;DHT22;21605;52.068;20.806;2024-03-02T01:30:50;7.10;99.90
35491;DHT22;21605;52.068;20.806;2024-03-02T01:33:19;7.10;99.90
35491;DHT22;21605;52.068;20.806;2024-03-02T01:35:46;7.10;99.90
35491;DHT22;21605;52.068;20.806;2024-03-02T01:38:12;7.00;99.90
35491;DHT22;21605;52.068;20.806;2024-03-02T01:40:42;7.00;99.90
35491;DHT22;21605;52.068;20.806;2024-03-02T01:43:09;7.00;99.90
35491;DHT22;21605;52.068;20.806;2024-03-02T01:45:41;7.00;99.90
35491;DHT22;21605;52.068;20.806;2024-03-02T01:48:07;7.00;99.90
35491;DHT22;21605;52.068;20.806;2024-03-02T01:50:33;7.00;99.90
35491;DHT22;21605;52.068;20.806;2024-03-02T01:53:00;7.00;99.90
35491;DHT22;21605;52.068;20.806;2024-03-02T01:55:26;7.00;99.90
35491;DHT22;21605;52.068;20.806;2024-03-02T01:57:53;6.90;99.90
35491;DHT22;21605;52.068;20.806;2024-03-02T02:00:20;6.90;99.90
35491;DHT22;21605;52.068;20.806;2024-03-02T02:02:47;6.90;99.90
35491;DHT22;21605;52.068;20.806;2024-03-02T02:05:13;6.90;99.90
35491;DHT22;21605;52.068;20.806;2024-03-02T02:07:40;6.90;99.90
35491;DHT22;21605;52.068;20.806;2024-03-02T02:10:07;6.90;99.90
35491;DHT22;21605;52.068;20.806;2024-03-02T02:12:33;6.90;99.90
35491;DHT22;21605;52.068;20.806;2024-03-02T02:14:58;6.90;99.90
35491;DHT22;21605;52.068;20.806;2024-03-02T02:17:24;7.00;99.90
35491;DHT22;21605;52.068;20.806;2024-03-02T02:19:50;6.90;99.90
35491;DHT22;21605;52.068;20.806;2024-03-02T02:22:15;6.90;99.90
35491;DHT22;21605;52.068;20.806;2024-03-02T02:24:46;6.90;99.90
35491;DHT22;21605;52.068;20.806;2024-03-02T02:27:11;6.90;99.90
35491;DHT22;21605;52.068;20.806;2024-03-02T02:29:45;6.90;99.90
35491;DHT22;21605;52.068;20.806;2024-03-02T02:32:11;6.90;99.90
35491;DHT22;21605;52.068;20.806;2024-03-02T02:34:45;6.80;99.90
35491;DHT22;21605;52.068;20.806;2024-03-02T02:37:11;6.90;99.90
35491;DHT22;21605;52.068;20.806;2024-03-02T02:39:46;6.90;99.90
35491;DHT22;21605;52.068;20.806;2024-03-02T02:42:12;6.90;99.90
35491;DHT22;21605;52.068;20.806;2024-03-02T02:44:46;6.90;99.90
35491;DHT22;21605;52.068;20.806;2024-03-02T02:47:12;6.80;99.90
35491;DHT22;21605;52.068;20.806;2024-03-02T02:49:44;6.80;99.90
35491;DHT22;21605;52.068;20.806;2024-03-02T02:52:09;6.80;99.90
35491;DHT22;21605;52.068;20.806;2024-03-02T02:54:45;6.80;99.90
35491;DHT22;21605;52.068;20.806;2024-03-02T02:57:10;6.90;99.90
35491;DHT22;21605;52.068;20.806;2024-03-02T02:59:45;6.80;99.90
35491;DHT22;21605;52.068;20.806;2024-03-02T03:02:10;6.80;99.90
35491;DHT22;21605;52.068;20.806;2024-03-02T03:04:45;6.80;99.90
35491;DHT22;21605;52.068;20.806;2024-03-02T03:07:10;6.80;99.90
35491;DHT22;21605;52.068;20.806;2024-03-02T03:09:52;6.80;99.90
35491;DHT22;21605;52.068;20.806;2024-03-02T03:12:18;6.80;99.90
35491;DHT22;21605;52.068;20.806;2024-03-02T03:14:47;6.80;99.90
35491;DHT22;21605;52.068;20.806;2024-03-02T03:17:12;6.90;99.90
35491;DHT22;21605;52.068;20.806;2024-03-02T03:19:43;6.80;99.90
35491;DHT22;21605;52.068;20.806;2024-03-02T03:22:09;6.80;99.90
35491;DHT22;21605;52.068;20.806;2024-03-02T03:24:34;6.70;99.90
35491;DHT22;21605;52.068;20.806;2024-03-02T03:27:00;6.80;99.90
35491;DHT22;21605;52.068;20.806;2024-03-02T03:29:26;6.80;99.90
35491;DHT22;21605;52.068;20.806;2024-03-02T03:31:54;6.70;99.90
35491;DHT22;21605;52.068;20.806;2024-03-02T03:34:20;6.80;99.90
35491;DHT22;21605;52.068;20.806;2024-03-02T03:36:47;6.80;99.90
35491;DHT22;21605;52.068;20.806;2024-03-02T03:39:13;6.80;99.90
35491;DHT22;21605;52.068;20.806;2024-03-02T03:41:50;6.70;99.90
35491;DHT22;21605;52.068;20.806;2024-03-02T03:44:16;6.70;99.90
35491;DHT22;21605;52.068;20.806;2024-03-02T03:46:51;6.60;99.90
35491;DHT22;21605;52.068;20.806;2024-03-02T03:49:16;6.60;99.90
35491;DHT22;21605;52.068;20.806;2024-03-02T03:51:52;6.60;99.90
35491;DHT22;21605;52.068;20.806;2024-03-02T03:54:17;6.50;99.90
35491;DHT22;21605;52.068;20.806;2024-03-02T03:56:52;6.60;99.90
35491;DHT22;21605;52.068;20.806;2024-03-02T03:59:17;6.60;99.90
35491;DHT22;21605;52.068;20.806;2024-03-02T04:01:48;6.60;99.90
35491;DHT22;21605;52.068;20.806;2024-03-02T04:04:14;6.60;99.90
35491;DHT22;21605;52.068;20.806;2024-03-02T04:06:49;6.50;99.90
35491;DHT22;21605;52.068;20.806;2024-03-02T04:09:14;6.50;99.90
35491;DHT22;21605;52.068;20.806;2024-03-02T04:11:46;6.60;99.90
35491;DHT22;21605;52.068;20.806;2024-03-02T04:14:11;6.60;99.90
35491;DHT22;21605;52.068;20.806;2024-03-02T04:16:38;6.50;99.90
35491;DHT22;21605;52.068;20.806;2024-03-02T04:19:04;6.50;99.90
35491;DHT22;21605;52.068;20.806;2024-03-02T04:21:30;6.50;99.90
35491;DHT22;21605;52.068;20.806;2024-03-02T04:23:55;6.50;99.90
35491;DHT22;21605;52.068;20.806;2024-03-02T04:26:27;6.50;99.90
35491;DHT22;21605;52.068;20.806;2024-03-02T04:28:58;6.60;99.90
35491;DHT22;21605;52.068;20.806;2024-03-02T04:31:23;6.40;99.90
35491;DHT22;21605;52.068;20.806;2024-03-02T04:33:58;6.50;99.90
35491;DHT22;21605;52.068;20.806;2024-03-02T04:36:23;6.40;99.90
35491;DHT22;21605;52.068;20.806;2024-03-02T04:38:50;6.40;99.90
35491;DHT22;21605;52.068;20.806;2024-03-02T04:41:16;6.40;99.90
35491;DHT22;21605;52.068;20.806;2024-03-02T04:43:47;6.30;99.90
35491;DHT22;21605;52.068;20.806;2024-03-02T04:46:13;6.40;99.90
35491;DHT22;21605;52.068;20.806;2024-03-02T04:48:39;6.30;99.90
35491;DHT22;21605;52.068;20.806;2024-03-02T04:51:04;6.20;99.90
35491;DHT22;21605;52.068;20.806;2024-03-02T04:53:30;6.30;99.90
35491;DHT22;21605;52.068;20.806;2024-03-02T04:55:55;6.30;99.90
35491;DHT22;21605;52.068;20.806;2024-03-02T04:58:21;6.20;99.90
35491;DHT22;21605;52.068;20.806;2024-03-02T05:00:52;6.30;99.90
35491;DHT22;21605;52.068;20.806;2024-03-02T05:03:18;6.30;99.90
35491;DHT22;21605;52.068;20.806;2024-03-02T05:05:47;6.20;99.90
35491;DHT22;21605;52.068;20.806;2024-03-02T05:08:13;6.10;99.90
35491;DHT22;21605;52.068;20.806;2024-03-02T05:10:38;6.10;99.90
35491;DHT22;21605;52.068;20.806;2024-03-02T05:13:04;6.20;99.90
35491;DHT22;21605;52.068;20.806;2024-03-02T05:15:30;6.20;99.90
35491;DHT22;21605;52.068;20.806;2024-03-02T05:17:55;6.10;99.90
35491;DHT22;21605;52.068;20.806;2024-03-02T05:20:22;6.30;99.90
35491;DHT22;21605;52.068;20.806;2024-03-02T05:22:53;6.30;99.90
35491;DHT22;21605;52.068;20.806;2024-03-02T05:25:19;6.40;99.90
35491;DHT22;21605;52.068;20.806;2024-03-02T05:27:45;6.30;99.90
35491;DHT22;21605;52.068;20.806;2024-03-02T05:30:11;6.30;99.90
35491;DHT22;21605;52.068;20.806;2024-03-02T05:32:37;6.30;99.90
35491;DHT22;21605;52.068;20.806;2024-03-02T05:35:03;6.30;99.90
35491;DHT22;21605;52.068;20.806;2024-03-02T05:37:30;6.30;99.90
35491;DHT22;21605;52.068;20.806;2024-03-02T05:39:56;6.30;99.90
35491;DHT22;21605;52.068;20.806;2024-03-02T05:42:22;6.30;99.90
35491;DHT22;21605;52.068;20.806;2024-03-02T05:44:53;6.40;99.90
35491;DHT22;21605;52.068;20.806;2024-03-02T05:47:19;6.40;99.90
35491;DHT22;21605;52.068;20.806;2024-03-02T05:49:54;6.40;99.90
35491;DHT22;21605;52.068;20.806;2024-03-02T05:52:20;6.40;99.90
35491;DHT22;21605;52.068;20.806;2024-03-02T05:54:51;6.40;99.90
35491;DHT22;21605;52.068;20.806;2024-03-02T05:57:16;6.30;99.90
35491;DHT22;21605;52.068;20.806;2024-03-02T05:59:53;6.40;99.90
35491;DHT22;21605;52.068;20.806;2024-03-02T06:02:19;6.40;99.90
35491;DHT22;21605;52.068;20.806;2024-03-02T06:04:55;6.50;99.90
35491;DHT22;21605;52.068;20.806;2024-03-02T06:07:21;6.40;99.90
35491;DHT22;21605;52.068;20.806;2024-03-02T06:09:55;6.50;99.90
35491;DHT22;21605;52.068;20.806;2024-03-02T06:12:21;6.50;99.90
35491;DHT22;21605;52.068;20.806;2024-03-02T06:14:56;6.50;99.90
35491;DHT22;21605;52.068;20.806;2024-03-02T06:17:21;6.50;99.90
35491;DHT22;21605;52.068;20.806;2024-03-02T06:19:47;6.50;99.90
35491;DHT22;21605;52.068;20.806;2024-03-02T06:22:13;6.50;99.90
35491;DHT22;21605;52.068;20.806;2024-03-02T06:24:38;6.50;99.90
35491;DHT22;21605;52.068;20.806;2024-03-02T06:27:05;6.60;99.90
35491;DHT22;21605;52.068;20.806;2024-03-02T06:29:33;6.60;99.90
35491;DHT22;21605;52.068;20.806;2024-03-02T06:31:59;6.60;99.90
35491;DHT22;21605;52.068;20.806;2024-03-02T06:34:25;6.50;99.90
35491;DHT22;21605;52.068;20.806;2024-03-02T06:36:53;6.70;99.90
35491;DHT22;21605;52.068;20.806;2024-03-02T06:39:19;6.60;99.90
35491;DHT22;21605;52.068;20.806;2024-03-02T06:41:44;6.60;99.90
35491;DHT22;21605;52.068;20.806;2024-03-02T06:44:28;6.70;99.90
35491;DHT22;21605;52.068;20.806;2024-03-02T06:47:03;6.70;99.90
35491;DHT22;21605;52.068;20.806;2024-03-02T06:49:28;6.70;99.90
35491;DHT22;21605;52.068;20.806;2024-03-02T06:51:55;6.60;99.90
35491;DHT22;21605;52.068;20.806;2024-03-02T06:54:21;6.70;99.90
35491;DHT22;21605;52.068;20.806;2024-03-02T06:56:58;6.70;99.90
35491;DHT22;21605;52.068;20.806;2024-03-02T06:59:24;6.70;99.90
35491;DHT22;21605;52.068;20.806;2024-03-02T07:01:55;6.80;99.90
35491;DHT22;21605;52.068;20.806;2024-03-02T07:04:22;6.80;99.90
35491;DHT22;21605;52.068;20.806;2024-03-02T07:06:49;6.80;99.90
35491;DHT22;21605;52.068;20.806;2024-03-02T07:09:14;6.80;99.90
35491;DHT22;21605;52.068;20.806;2024-03-02T07:11:40;6.90;99.90
35491;DHT22;21605;52.068;20.806;2024-03-02T07:14:05;6.80;99.90
35491;DHT22;21605;52.068;20.806;2024-03-02T07:16:31;6.90;99.90
35491;DHT22;21605;52.068;20.806;2024-03-02T07:18:58;6.90;99.90
35491;DHT22;21605;52.068;20.806;2024-03-02T07:21:24;6.90;99.90
35491;DHT22;21605;52.068;20.806;2024-03-02T07:23:59;6.90;99.90
35491;DHT22;21605;52.068;20.806;2024-03-02T07:26:25;6.90;99.90
35491;DHT22;21605;52.068;20.806;2024-03-02T07:28:51;6.90;99.90
35491;DHT22;21605;52.068;20.806;2024-03-02T07:31:17;7.00;99.90
35491;DHT22;21605;52.068;20.806;2024-03-02T07:33:46;7.00;99.90
35491;DHT22;21605;52.068;20.806;2024-03-02T07:36:12;7.00;99.90
35491;DHT22;21605;52.068;20.806;2024-03-02T07:38:38;7.00;99.90
35491;DHT22;21605;52.068;20.806;2024-03-02T07:41:04;7.00;99.90
35491;DHT22;21605;52.068;20.806;2024-03-02T07:43:30;7.00;99.90
35491;DHT22;21605;52.068;20.806;2024-03-02T07:45:57;7.10;99.90
35491;DHT22;21605;52.068;20.806;2024-03-02T07:48:23;7.10;99.90
35491;DHT22;21605;52.068;20.806;2024-03-02T07:50:48;7.10;99.90
35491;DHT22;21605;52.068;20.806;2024-03-02T07:53:14;7.10;99.90
35491;DHT22;21605;52.068;20.806;2024-03-02T07:55:40;7.10;99.90
35491;DHT22;21605;52.068;20.806;2024-03-02T07:58:06;7.10;99.90
35491;DHT22;21605;52.068;20.806;2024-03-02T08:00:32;7.20;99.90
35491;DHT22;21605;52.068;20.806;2024-03-02T08:02:59;7.20;99.90
35491;DHT22;21605;52.068;20.806;2024-03-02T08:05:26;7.20;99.90
35491;DHT22;21605;52.068;20.806;2024-03-02T08:07:52;7.20;99.90
35491;DHT22;21605;52.068;20.806;2024-03-02T08:10:18;7.20;99.90
35491;DHT22;21605;52.068;20.806;2024-03-02T08:12:45;7.10;99.90
35491;DHT22;21605;52.068;20.806;2024-03-02T08:15:10;7.20;99.90
35491;DHT22;21605;52.068;20.806;2024-03-02T08:17:38;7.20;99.90
35491;DHT22;21605;52.068;20.806;2024-03-02T08:20:10;7.30;99.90
35491;DHT22;21605;52.068;20.806;2024-03-02T08:22:36;7.30;99.90
35491;DHT22;21605;52.068;20.806;2024-03-02T08:25:02;7.30;99.90
35491;DHT22;21605;52.068;20.806;2024-03-02T08:27:28;7.30;99.90
35491;DHT22;21605;52.068;20.806;2024-03-02T08:29:59;7.30;99.90
35491;DHT22;21605;52.068;20.806;2024-03-02T08:32:25;7.40;99.90
35491;DHT22;21605;52.068;20.806;2024-03-02T08:34:50;7.30;99.90
35491;DHT22;21605;52.068;20.806;2024-03-02T08:37:16;7.30;99.90
35491;DHT22;21605;52.068;20.806;2024-03-02T08:39:42;7.30;99.90
35491;DHT22;21605;52.068;20.806;2024-03-02T08:42:07;7.30;99.90
35491;DHT22;21605;52.068;20.806;2024-03-02T08:44:33;7.30;99.90
35491;DHT22;21605;52.068;20.806;2024-03-02T08:46:59;7.40;99.90
35491;DHT22;21605;52.068;20.806;2024-03-02T08:49:24;7.40;99.90
35491;DHT22;21605;52.068;20.806;2024-03-02T08:51:50;7.40;99.90
35491;DHT22;21605;52.068;20.806;2024-03-02T08:54:35;7.50;99.90
35491;DHT22;21605;52.068;20.806;2024-03-02T08:57:07;7.40;99.90
35491;DHT22;21605;52.068;20.806;2024-03-02T08:59:33;7.50;99.90
35491;DHT22;21605;52.068;20.806;2024-03-02T09:02:01;7.50;99.90
35491;DHT22;21605;52.068;20.806;2024-03-02T09:04:28;7.60;99.90
35491;DHT22;21605;52.068;20.806;2024-03-02T09:06:54;7.60;99.90
35491;DHT22;21605;52.068;20.806;2024-03-02T09:09:19;7.70;99.90
35491;DHT22;21605;52.068;20.806;2024-03-02T09:11:46;7.90;99.90
35491;DHT22;21605;52.068;20.806;2024-03-02T09:14:12;7.80;99.90
35491;DHT22;21605;52.068;20.806;2024-03-02T09:16:38;7.70;99.90
35491;DHT22;21605;52.068;20.806;2024-03-02T09:19:03;7.80;99.90
35491;DHT22;21605;52.068;20.806;2024-03-02T09:21:29;7.70;99.90
35491;DHT22;21605;52.068;20.806;2024-03-02T09:24:04;7.80;99.90
35491;DHT22;21605;52.068;20.806;2024-03-02T09:26:32;7.80;99.90
35491;DHT22;21605;52.068;20.806;2024-03-02T09:29:03;7.90;99.90
35491;DHT22;21605;52.068;20.806;2024-03-02T09:31:29;7.90;99.90
35491;DHT22;21605;52.068;20.806;2024-03-02T09:34:04;7.90;99.90
35491;DHT22;21605;52.068;20.806;2024-03-02T09:36:29;7.90;99.90
35491;DHT22;21605;52.068;20.806;2024-03-02T09:39:04;8.00;99.90
35491;DHT22;21605;52.068;20.806;2024-03-02T09:41:30;8.00;99.90
35491;DHT22;21605;52.068;20.806;2024-03-02T09:43:57;7.90;99.90
35491;DHT22;21605;52.068;20.806;2024-03-02T09:46:23;8.00;99.90
35491;DHT22;21605;52.068;20.806;2024-03-02T09:48:49;8.00;99.90
35491;DHT22;21605;52.068;20.806;2024-03-02T09:51:15;8.00;99.90
35491;DHT22;21605;52.068;20.806;2024-03-02T09:53:41;8.00;99.90
35491;DHT22;21605;52.068;20.806;2024-03-02T09:56:06;8.10;99.90
35491;DHT22;21605;52.068;20.806;2024-03-02T09:58:32;8.10;99.90
35491;DHT22;21605;52.068;20.806;2024-03-02T10:01:06;8.10;99.90
35491;DHT22;21605;52.068;20.806;2024-03-02T10:03:33;8.10;99.90
35491;DHT22;21605;52.068;20.806;2024-03-02T10:06:23;8.30;99.90
35491;DHT22;21605;52.068;20.806;2024-03-02T10:08:49;8.20;99.90
35491;DHT22;21605;52.068;20.806;2024-03-02T10:14:09;8.30;99.90
35491;DHT22;21605;52.068;20.806;2024-03-02T10:16:36;8.40;99.90
35491;DHT22;21605;52.068;20.806;2024-03-02T10:21:42;8.40;99.90
35491;DHT22;21605;52.068;20.806;2024-03-02T10:24:08;8.50;99.90
35491;DHT22;21605;52.068;20.806;2024-03-02T10:26:33;8.50;99.90
35491;DHT22;21605;52.068;20.806;2024-03-02T10:29:02;8.60;99.90
35491;DHT22;21605;52.068;20.806;2024-03-02T10:31:28;8.70;99.90
35491;DHT22;21605;52.068;20.806;2024-03-02T10:34:10;8.70;99.90
35491;DHT22;21605;52.068;20.806;2024-03-02T10:36:37;8.80;99.90
35491;DHT22;21605;52.068;20.806;2024-03-02T10:39:07;8.90;99.90
35491;DHT22;21605;52.068;20.806;2024-03-02T10:41:38;8.70;99.90
35491;DHT22;21605;52.068;20.806;2024-03-02T10:44:09;8.80;99.90
35491;DHT22;21605;52.068;20.806;2024-03-02T10:46:38;9.10;99.90
35491;DHT22;21605;52.068;20.806;2024-03-02T10:49:06;8.90;99.90
35491;DHT22;21605;52.068;20.806;2024-03-02T10:51:33;8.90;99.90
35491;DHT22;21605;52.068;20.806;2024-03-02T10:54:10;9.00;99.90
35491;DHT22;21605;52.068;20.806;2024-03-02T10:56:40;9.00;99.90
35491;DHT22;21605;52.068;20.806;2024-03-02T10:59:36;9.00;99.90
35491;DHT22;21605;52.068;20.806;2024-03-02T11:02:04;9.00;99.90
35491;DHT22;21605;52.068;20.806;2024-03-02T11:04:32;9.10;99.90
35491;DHT22;21605;52.068;20.806;2024-03-02T11:07:10;9.10;99.90
35491;DHT22;21605;52.068;20.806;2024-03-02T11:09:40;9.10;99.90
35491;DHT22;21605;52.068;20.806;2024-03-02T11:12:13;9.30;99.90
35491;DHT22;21605;52.068;20.806;2024-03-02T11:14:41;9.20;99.90
35491;DHT22;21605;52.068;20.806;2024-03-02T11:17:10;9.30;99.90
35491;DHT22;21605;52.068;20.806;2024-03-02T11:19:38;9.40;99.90
35491;DHT22;21605;52.068;20.806;2024-03-02T11:22:11;9.40;99.90
35491;DHT22;21605;52.068;20.806;2024-03-02T11:24:37;9.50;99.90
35491;DHT22;21605;52.068;20.806;2024-03-02T11:27:05;9.50;99.90
35491;DHT22;21605;52.068;20.806;2024-03-02T11:32:17;9.70;99.90
35491;DHT22;21605;52.068;20.806;2024-03-02T11:34:46;9.60;99.90
35491;DHT22;21605;52.068;20.806;2024-03-02T11:37:13;9.60;99.90
35491;DHT22;21605;52.068;20.806;2024-03-02T11:39:39;9.80;99.90
35491;DHT22;21605;52.068;20.806;2024-03-02T11:42:08;9.80;99.90
35491;DHT22;21605;52.068;20.806;2024-03-02T11:44:35;9.90;99.90
35491;DHT22;21605;52.068;20.806;2024-03-02T11:47:15;9.90;99.90
35491;DHT22;21605;52.068;20.806;2024-03-02T11:49:46;10.00;99.90
35491;DHT22;21605;52.068;20.806;2024-03-02T11:52:14;10.00;99.90
35491;DHT22;21605;52.068;20.806;2024-03-02T11:54:42;10.10;99.90
35491;DHT22;21605;52.068;20.806;2024-03-02T11:57:21;10.20;99.90
35491;DHT22;21605;52.068;20.806;2024-03-02T11:59:51;10.20;99.90
35491;DHT22;21605;52.068;20.806;2024-03-02T12:02:19;10.30;99.90
35491;DHT22;21605;52.068;20.806;2024-03-02T12:04:46;11.50;99.90
35491;DHT22;21605;52.068;20.806;2024-03-02T12:07:19;10.30;99.90
35491;DHT22;21605;52.068;20.806;2024-03-02T12:09:46;10.40;99.90
35491;DHT22;21605;52.068;20.806;2024-03-02T12:12:12;10.50;99.90
35491;DHT22;21605;52.068;20.806;2024-03-02T12:14:53;10.50;99.90
35491;DHT22;21605;52.068;20.806;2024-03-02T12:17:21;10.60;99.90
35491;DHT22;21605;52.068;20.806;2024-03-02T12:19:47;10.70;99.90
35491;DHT22;21605;52.068;20.806;2024-03-02T12:22:13;10.80;99.90
35491;DHT22;21605;52.068;20.806;2024-03-02T12:24:39;10.70;99.90
35491;DHT22;21605;52.068;20.806;2024-03-02T12:27:05;10.80;99.90
35491;DHT22;21605;52.068;20.806;2024-03-02T12:29:32;10.90;99.90
35491;DHT22;21605;52.068;20.806;2024-03-02T12:31:59;10.80;99.90
35491;DHT22;21605;52.068;20.806;2024-03-02T12:34:47;10.80;99.90
35491;DHT22;21605;52.068;20.806;2024-03-02T12:37:13;10.90;99.90
35491;DHT22;21605;52.068;20.806;2024-03-02T12:39:39;10.90;99.90
35491;DHT22;21605;52.068;20.806;2024-03-02T12:42:04;10.90;99.90
35491;DHT22;21605;52.068;20.806;2024-03-02T12:44:30;11.10;99.90
35491;DHT22;21605;52.068;20.806;2024-03-02T12:46:56;11.10;99.90
35491;DHT22;21605;52.068;20.806;2024-03-02T12:49:22;11.20;99.90
35491;DHT22;21605;52.068;20.806;2024-03-02T12:51:48;11.20;99.90
35491;DHT22;21605;52.068;20.806;2024-03-02T12:54:17;11.20;99.90
35491;DHT22;21605;52.068;20.806;2024-03-02T12:56:43;11.30;99.90
35491;DHT22;21605;52.068;20.806;2024-03-02T12:59:19;11.40;99.90
35491;DHT22;21605;52.068;20.806;2024-03-02T13:01:56;11.30;99.90
35491;DHT22;21605;52.068;20.806;2024-03-02T13:04:28;11.30;99.90
35491;DHT22;21605;52.068;20.806;2024-03-02T13:06:55;11.40;99.90
35491;DHT22;21605;52.068;20.806;2024-03-02T13:09:24;11.40;99.90
35491;DHT22;21605;52.068;20.806;2024-03-02T13:11:50;11.40;99.90
35491;DHT22;21605;52.068;20.806;2024-03-02T13:14:17;11.40;99.90
35491;DHT22;21605;52.068;20.806;2024-03-02T13:16:45;11.50;99.90
35491;DHT22;21605;52.068;20.806;2024-03-02T13:19:12;11.60;99.90
35491;DHT22;21605;52.068;20.806;2024-03-02T13:21:38;11.50;99.90
35491;DHT22;21605;52.068;20.806;2024-03-02T13:24:13;11.50;99.90
35491;DHT22;21605;52.068;20.806;2024-03-02T13:26:38;11.50;99.90
35491;DHT22;21605;52.068;20.806;2024-03-02T13:29:05;11.50;99.90
35491;DHT22;21605;52.068;20.806;2024-03-02T13:31:31;11.50;99.90
35491;DHT22;21605;52.068;20.806;2024-03-02T13:33:56;11.50;99.90
35491;DHT22;21605;52.068;20.806;2024-03-02T13:36:22;11.50;99.90
35491;DHT22;21605;52.068;20.806;2024-03-02T13:38:47;11.50;99.90
35491;DHT22;21605;52.068;20.806;2024-03-02T13:41:13;11.60;99.90
35491;DHT22;21605;52.068;20.806;2024-03-02T13:43:39;11.60;99.90
35491;DHT22;21605;52.068;20.806;2024-03-02T13:46:05;11.60;99.90
35491;DHT22;21605;52.068;20.806;2024-03-02T13:48:31;11.70;99.90
35491;DHT22;21605;52.068;20.806;2024-03-02T13:50:57;11.60;99.90
35491;DHT22;21605;52.068;20.806;2024-03-02T13:53:23;11.40;99.90
35491;DHT22;21605;52.068;20.806;2024-03-02T13:55:49;11.50;99.90
35491;DHT22;21605;52.068;20.806;2024-03-02T13:58:14;11.50;99.90
35491;DHT22;21605;52.068;20.806;2024-03-02T14:00:40;11.50;99.90
35491;DHT22;21605;52.068;20.806;2024-03-02T14:03:06;11.40;99.90
35491;DHT22;21605;52.068;20.806;2024-03-02T14:05:32;11.40;99.90
35491;DHT22;21605;52.068;20.806;2024-03-02T14:07:57;11.40;99.90
35491;DHT22;21605;52.068;20.806;2024-03-02T14:10:25;11.30;99.90
35491;DHT22;21605;52.068;20.806;2024-03-02T14:12:51;11.20;99.90
35491;DHT22;21605;52.068;20.806;2024-03-02T14:15:16;11.20;99.90
35491;DHT22;21605;52.068;20.806;2024-03-02T14:17:42;11.10;99.90
35491;DHT22;21605;52.068;20.806;2024-03-02T14:20:17;11.10;99.90
35491;DHT22;21605;52.068;20.806;2024-03-02T14:22:47;11.10;99.90
35491;DHT22;21605;52.068;20.806;2024-03-02T14:25:17;11.00;99.90
35491;DHT22;21605;52.068;20.806;2024-03-02T14:27:43;11.00;99.90
35491;DHT22;21605;52.068;20.806;2024-03-02T14:30:17;11.00;99.90
35491;DHT22;21605;52.068;20.806;2024-03-02T14:32:43;10.90;99.90
35491;DHT22;21605;52.068;20.806;2024-03-02T14:35:17;10.90;99.90
35491;DHT22;21605;52.068;20.806;2024-03-02T14:37:44;10.80;99.90
35491;DHT22;21605;52.068;20.806;2024-03-02T14:40:14;10.70;99.90
35491;DHT22;21605;52.068;20.806;2024-03-02T14:42:40;10.80;99.90
35491;DHT22;21605;52.068;20.806;2024-03-02T14:45:07;10.90;99.90
35491;DHT22;21605;52.068;20.806;2024-03-02T14:47:33;10.80;99.90
35491;DHT22;21605;52.068;20.806;2024-03-02T14:50:00;10.80;99.90
35491;DHT22;21605;52.068;20.806;2024-03-02T14:52:26;10.80;99.90
35491;DHT22;21605;52.068;20.806;2024-03-02T14:54:52;10.70;99.90
35491;DHT22;21605;52.068;20.806;2024-03-02T14:57:17;10.70;99.90
35491;DHT22;21605;52.068;20.806;2024-03-02T14:59:43;10.70;99.90
35491;DHT22;21605;52.068;20.806;2024-03-02T15:02:18;10.40;99.90
35491;DHT22;21605;52.068;20.806;2024-03-02T15:04:43;10.40;99.90
35491;DHT22;21605;52.068;20.806;2024-03-02T15:07:19;10.50;99.90
35491;DHT22;21605;52.068;20.806;2024-03-02T15:09:45;10.40;99.90
35491;DHT22;21605;52.068;20.806;2024-03-02T15:12:20;10.40;99.90
35491;DHT22;21605;52.068;20.806;2024-03-02T15:14:45;10.40;99.90
35491;DHT22;21605;52.068;20.806;2024-03-02T15:17:19;10.40;99.90
35491;DHT22;21605;52.068;20.806;2024-03-02T15:19:45;10.30;99.90
35491;DHT22;21605;52.068;20.806;2024-03-02T15:22:12;10.40;99.90
35491;DHT22;21605;52.068;20.806;2024-03-02T15:24:38;10.20;99.90
35491;DHT22;21605;52.068;20.806;2024-03-02T15:27:04;10.30;99.90
35491;DHT22;21605;52.068;20.806;2024-03-02T15:29:37;10.20;99.90
35491;DHT22;21605;52.068;20.806;2024-03-02T15:32:03;10.10;99.90
35491;DHT22;21605;52.068;20.806;2024-03-02T15:34:32;10.10;99.90
35491;DHT22;21605;52.068;20.806;2024-03-02T15:36:58;10.10;99.90
35491;DHT22;21605;52.068;20.806;2024-03-02T15:39:25;10.20;99.90
35491;DHT22;21605;52.068;20.806;2024-03-02T15:41:50;10.00;99.90